Transporter — EAJI — position and weather

sailwx.info

Track history (hours):
 
Tides and Currents Weather Stations Pressure Air Temp Water Temp Dewpoint Dewpoint Depression Visibility Wind Speed Wind Dir Waves Ship Positions

Transporter

Last reported at 2017-Dec-15 20:59 UTC. Time now 2017-Dec-15 21:23 UTC.
Position N 36°08' W 005°26'.

Length 122 m; draft 5.8 m.

Type: Ship. MMSI: 225456000.

Date/timePositionNaut miles runAvg speedWind from/ knotsBaromVisibWave heightAir tempDewpointWater temp
2017-Dec-15 20:59N 36°08' W 005°26'2 3.4
2017-Dec-15 20:30N 36°08' W 005°24'713.4
2017-Dec-15 20:00N 36°02' W 005°20'713.6
2017-Dec-15 19:30N 35°55' W 005°19'1 3.0
2017-Dec-15 19:00N 35°54' W 005°19'0 0.0
2017-Dec-15 18:30N 35°54' W 005°19'0 0.0
2017-Dec-15 18:00N 35°54' W 005°19'0 0.0
2017-Dec-15 17:30N 35°54' W 005°19'0 0.0
2017-Dec-15 17:00N 35°54' W 005°19'0 0.0
2017-Dec-15 16:30N 35°54' W 005°19'0 0.0
2017-Dec-15 16:00N 35°54' W 005°19'0 0.0
2017-Dec-15 15:30N 35°54' W 005°19'0 0.0
2017-Dec-15 15:00N 35°54' W 005°19'0 0.0
2017-Dec-15 14:30N 35°54' W 005°19'0 0.3
2017-Dec-15 14:00N 35°54' W 005°19'4 7.3
2017-Dec-15 13:30N 35°57' W 005°20'12 1.9
2017-Dec-15 07:25N 36°08' W 005°26'0 0.0
2017-Dec-15 06:59N 36°08' W 005°26'0 0.0
2017-Dec-15 06:25N 36°08' W 005°26'0 0.0
2017-Dec-15 05:55N 36°08' W 005°26'0 0.0
2017-Dec-15 05:07N 36°08' W 005°26'0 0.0
2017-Dec-15 04:43N 36°08' W 005°26'0 0.0
2017-Dec-15 04:23N 36°08' W 005°26'0 0.0
2017-Dec-15 03:59N 36°08' W 005°26'15 1.6
2017-Dec-14 18:31N 35°54' W 005°19'1 1.1
2017-Dec-14 18:00N 35°54' W 005°19'0 0.0
2017-Dec-14 17:29N 35°54' W 005°19'0 0.0
2017-Dec-14 16:59N 35°54' W 005°19'0 0.0
2017-Dec-14 16:29N 35°54' W 005°19'0 0.0
2017-Dec-14 15:59N 35°54' W 005°19'0 0.0
2017-Dec-14 14:59N 35°54' W 005°19'1 2.4
2017-Dec-14 14:30N 35°55' W 005°19'14 1.7
2017-Dec-14 05:54N 36°08' W 005°26'0 0.0
2017-Dec-14 04:42N 36°08' W 005°26'0 0.0
2017-Dec-14 04:15N 36°08' W 005°26'0 0.0
2017-Dec-14 03:52N 36°08' W 005°26'0 0.0
2017-Dec-13 22:46N 36°08' W 005°26'0 0.0
2017-Dec-13 22:28N 36°08' W 005°26'0 0.0
2017-Dec-13 21:57N 36°08' W 005°26'4 6.1
2017-Dec-13 21:14N 36°05' W 005°22'313.4
2017-Dec-13 21:00N 36°02' W 005°21'713.4
2017-Dec-13 20:30N 35°55' W 005°19'1 2.7
2017-Dec-13 20:00N 35°54' W 005°19'0 0.0
2017-Dec-13 19:30N 35°54' W 005°19'0 0.0
2017-Dec-13 19:00N 35°54' W 005°19'0 0.0
2017-Dec-13 18:30N 35°54' W 005°19'0 0.0
2017-Dec-13 18:00N 35°54' W 005°19'0 0.0
2017-Dec-13 17:30N 35°54' W 005°19'0 0.0
2017-Dec-13 17:00N 35°54' W 005°19'0 0.0
2017-Dec-13 16:30N 35°54' W 005°19'0 0.0
2017-Dec-13 16:00N 35°54' W 005°19'0 0.0
2017-Dec-13 15:30N 35°54' W 005°19'0 0.0
2017-Dec-13 15:00N 35°54' W 005°19'1 1.4
2017-Dec-13 14:30N 35°54' W 005°19'15 1.5
2017-Dec-13 04:13N 36°08' W 005°26'0 0.0
2017-Dec-13 03:51N 36°08' W 005°26'0 0.0
2017-Dec-13 03:03N 36°08' W 005°26'0 0.0
2017-Dec-13 00:21N 36°08' W 005°26'0 0.0
2017-Dec-12 20:28N 36°08' W 005°26'9 6.5
2017-Dec-12 19:04N 36°00' W 005°20'113.3
2017-Dec-12 19:00N 35°59' W 005°20'611.4
2017-Dec-12 18:31N 35°54' W 005°19'0 0.6
2017-Dec-12 18:00N 35°54' W 005°19'0 0.0
2017-Dec-12 17:30N 35°54' W 005°19'0 0.0
2017-Dec-12 17:00N 35°54' W 005°19'0 0.0
2017-Dec-12 16:30N 35°54' W 005°19'0 0.0
2017-Dec-12 16:01N 35°54' W 005°19'0 0.0
2017-Dec-12 15:31N 35°54' W 005°19'0 0.0
2017-Dec-12 15:00N 35°54' W 005°19'0 0.0
2017-Dec-12 14:30N 35°54' W 005°19'0 0.0
2017-Dec-12 14:01N 35°54' W 005°19'4 8.5
2017-Dec-12 13:30N 35°58' W 005°20'11 1.0
2017-Dec-12 02:12N 36°08' W 005°26'0 0.0
2017-Dec-12 01:43N 36°08' W 005°26'0 0.0
2017-Dec-12 01:31N 36°08' W 005°26'0 0.0
2017-Dec-12 01:00N 36°08' W 005°26'0 0.0
2017-Dec-12 00:26N 36°08' W 005°26'0 0.0
2017-Dec-12 00:00N 36°08' W 005°26'0 0.0
2017-Dec-11 23:27N 36°08' W 005°26'0 0.0
2017-Dec-11 22:58N 36°08' W 005°26'0 0.0
2017-Dec-11 22:28N 36°08' W 005°26'1 2.4
2017-Dec-11 22:00N 36°08' W 005°25'612.4
2017-Dec-11 21:30N 36°03' W 005°22'612.1
2017-Dec-11 21:00N 35°57' W 005°20'  
Track history (hours):
 
Tides and Currents Weather Stations Pressure Air Temp Water Temp Dewpoint Dewpoint Depression Visibility Wind Speed Wind Dir Waves Ship Positions

Transporter

Last reported at 2017-Dec-15 20:59 UTC. Time now 2017-Dec-15 21:23 UTC.
Position N 36°08' W 005°26'.

Length 122 m; draft 5.8 m.

Type: Ship. MMSI: 225456000.

Date/timePositionNaut miles runAvg speedWind from/ knotsBaromVisibWave heightAir tempDewpointWater temp
2017-Dec-15 20:59N 36°08' W 005°26'2 3.4
2017-Dec-15 20:30N 36°08' W 005°24'713.4
2017-Dec-15 20:00N 36°02' W 005°20'713.6
2017-Dec-15 19:30N 35°55' W 005°19'1 3.0
2017-Dec-15 19:00N 35°54' W 005°19'0 0.0
2017-Dec-15 18:30N 35°54' W 005°19'0 0.0
2017-Dec-15 18:00N 35°54' W 005°19'0 0.0
2017-Dec-15 17:30N 35°54' W 005°19'0 0.0
2017-Dec-15 17:00N 35°54' W 005°19'0 0.0
2017-Dec-15 16:30N 35°54' W 005°19'0 0.0
2017-Dec-15 16:00N 35°54' W 005°19'0 0.0
2017-Dec-15 15:30N 35°54' W 005°19'0 0.0
2017-Dec-15 15:00N 35°54' W 005°19'0 0.0
2017-Dec-15 14:30N 35°54' W 005°19'0 0.3
2017-Dec-15 14:00N 35°54' W 005°19'4 7.3
2017-Dec-15 13:30N 35°57' W 005°20'12 1.9
2017-Dec-15 07:25N 36°08' W 005°26'0 0.0
2017-Dec-15 06:59N 36°08' W 005°26'0 0.0
2017-Dec-15 06:25N 36°08' W 005°26'0 0.0
2017-Dec-15 05:55N 36°08' W 005°26'0 0.0
2017-Dec-15 05:07N 36°08' W 005°26'0 0.0
2017-Dec-15 04:43N 36°08' W 005°26'0 0.0
2017-Dec-15 04:23N 36°08' W 005°26'0 0.0
2017-Dec-15 03:59N 36°08' W 005°26'15 1.6
2017-Dec-14 18:31N 35°54' W 005°19'1 1.1
2017-Dec-14 18:00N 35°54' W 005°19'0 0.0
2017-Dec-14 17:29N 35°54' W 005°19'0 0.0
2017-Dec-14 16:59N 35°54' W 005°19'0 0.0
2017-Dec-14 16:29N 35°54' W 005°19'0 0.0
2017-Dec-14 15:59N 35°54' W 005°19'0 0.0
2017-Dec-14 14:59N 35°54' W 005°19'1 2.4
2017-Dec-14 14:30N 35°55' W 005°19'14 1.7
2017-Dec-14 05:54N 36°08' W 005°26'0 0.0
2017-Dec-14 04:42N 36°08' W 005°26'0 0.0
2017-Dec-14 04:15N 36°08' W 005°26'0 0.0
2017-Dec-14 03:52N 36°08' W 005°26'0 0.0
2017-Dec-13 22:46N 36°08' W 005°26'0 0.0
2017-Dec-13 22:28N 36°08' W 005°26'0 0.0
2017-Dec-13 21:57N 36°08' W 005°26'4 6.1
2017-Dec-13 21:14N 36°05' W 005°22'313.4
2017-Dec-13 21:00N 36°02' W 005°21'713.4
2017-Dec-13 20:30N 35°55' W 005°19'1 2.7
2017-Dec-13 20:00N 35°54' W 005°19'0 0.0
2017-Dec-13 19:30N 35°54' W 005°19'0 0.0
2017-Dec-13 19:00N 35°54' W 005°19'0 0.0
2017-Dec-13 18:30N 35°54' W 005°19'0 0.0
2017-Dec-13 18:00N 35°54' W 005°19'0 0.0
2017-Dec-13 17:30N 35°54' W 005°19'0 0.0
2017-Dec-13 17:00N 35°54' W 005°19'0 0.0
2017-Dec-13 16:30N 35°54' W 005°19'0 0.0
2017-Dec-13 16:00N 35°54' W 005°19'0 0.0
2017-Dec-13 15:30N 35°54' W 005°19'0 0.0
2017-Dec-13 15:00N 35°54' W 005°19'1 1.4
2017-Dec-13 14:30N 35°54' W 005°19'15 1.5
2017-Dec-13 04:13N 36°08' W 005°26'0 0.0
2017-Dec-13 03:51N 36°08' W 005°26'0 0.0
2017-Dec-13 03:03N 36°08' W 005°26'0 0.0
2017-Dec-13 00:21N 36°08' W 005°26'0 0.0
2017-Dec-12 20:28N 36°08' W 005°26'9 6.5
2017-Dec-12 19:04N 36°00' W 005°20'113.3
2017-Dec-12 19:00N 35°59' W 005°20'611.4
2017-Dec-12 18:31N 35°54' W 005°19'0 0.6
2017-Dec-12 18:00N 35°54' W 005°19'0 0.0
2017-Dec-12 17:30N 35°54' W 005°19'0 0.0
2017-Dec-12 17:00N 35°54' W 005°19'0 0.0
2017-Dec-12 16:30N 35°54' W 005°19'0 0.0
2017-Dec-12 16:01N 35°54' W 005°19'0 0.0
2017-Dec-12 15:31N 35°54' W 005°19'0 0.0
2017-Dec-12 15:00N 35°54' W 005°19'0 0.0
2017-Dec-12 14:30N 35°54' W 005°19'0 0.0
2017-Dec-12 14:01N 35°54' W 005°19'4 8.5
2017-Dec-12 13:30N 35°58' W 005°20'11 1.0
2017-Dec-12 02:12N 36°08' W 005°26'0 0.0
2017-Dec-12 01:43N 36°08' W 005°26'0 0.0
2017-Dec-12 01:31N 36°08' W 005°26'0 0.0
2017-Dec-12 01:00N 36°08' W 005°26'0 0.0
2017-Dec-12 00:26N 36°08' W 005°26'0 0.0
2017-Dec-12 00:00N 36°08' W 005°26'0 0.0
2017-Dec-11 23:27N 36°08' W 005°26'0 0.0
2017-Dec-11 22:58N 36°08' W 005°26'0 0.0
2017-Dec-11 22:28N 36°08' W 005°26'1 2.4
2017-Dec-11 22:00N 36°08' W 005°25'612.4
2017-Dec-11 21:30N 36°03' W 005°22'612.1
2017-Dec-11 21:00N 35°57' W 005°20'  

Dump ship's entire track history